sensor_id;sensor_type;location;lat;lon;timestamp;pressure;altitude;pressure_sealevel;temperature;humidity
62833;BME280;48891;49.220;6.920;2024-03-23T00:55:18;98276.03;;;17.94;69.85
62833;BME280;48891;49.220;6.920;2024-03-23T00:57:43;98278.69;;;17.94;69.74
62833;BME280;48891;49.220;6.920;2024-03-23T01:00:08;98273.50;;;17.92;70.03
62833;BME280;48891;49.220;6.920;2024-03-23T01:02:34;98268.16;;;17.92;69.70
62833;BME280;48891;49.220;6.920;2024-03-23T01:04:59;98276.31;;;17.91;69.85
62833;BME280;48891;49.220;6.920;2024-03-23T01:07:24;98271.66;;;17.93;69.65
62833;BME280;48891;49.220;6.920;2024-03-23T01:09:50;98271.81;;;17.91;69.70
62833;BME280;48891;49.220;6.920;2024-03-23T01:12:15;98232.31;;;17.67;69.70
62833;BME280;48891;49.220;6.920;2024-03-23T01:14:40;98234.13;;;17.67;69.78
62833;BME280;48891;49.220;6.920;2024-03-23T01:17:05;98252.06;;;17.74;69.62
62833;BME280;48891;49.220;6.920;2024-03-23T01:19:31;98277.13;;;17.91;69.69
62833;BME280;48891;49.220;6.920;2024-03-23T01:21:56;98275.47;;;17.90;70.00
62833;BME280;48891;49.220;6.920;2024-03-23T01:24:21;98270.97;;;17.91;70.07
62833;BME280;48891;49.220;6.920;2024-03-23T01:26:46;98282.63;;;17.90;69.66
62833;BME280;48891;49.220;6.920;2024-03-23T01:29:12;98286.97;;;17.91;69.90
62833;BME280;48891;49.220;6.920;2024-03-23T01:31:37;98283.47;;;17.90;70.01
62833;BME280;48891;49.220;6.920;2024-03-23T01:34:02;98274.47;;;17.91;69.74
62833;BME280;48891;49.220;6.920;2024-03-23T01:36:27;98229.66;;;17.67;69.61
62833;BME280;48891;49.220;6.920;2024-03-23T01:38:53;98271.81;;;17.91;69.65
62833;BME280;48891;49.220;6.920;2024-03-23T01:41:18;98262.16;;;17.90;69.49
62833;BME280;48891;49.220;6.920;2024-03-23T01:43:43;98265.63;;;17.91;69.84
62833;BME280;48891;49.220;6.920;2024-03-23T01:46:08;98244.31;;;17.81;69.79
62833;BME280;48891;49.220;6.920;2024-03-23T01:48:34;98261.13;;;17.91;69.74
62833;BME280;48891;49.220;6.920;2024-03-23T01:50:59;98269.97;;;17.92;69.65
62833;BME280;48891;49.220;6.920;2024-03-23T01:53:25;98263.81;;;17.91;69.88
62833;BME280;48891;49.220;6.920;2024-03-23T01:55:50;98244.06;;;17.74;69.39
62833;BME280;48891;49.220;6.920;2024-03-23T01:58:16;98269.41;;;17.88;69.63
62833;BME280;48891;49.220;6.920;2024-03-23T02:00:41;98277.28;;;17.90;69.66
62833;BME280;48891;49.220;6.920;2024-03-23T02:03:22;98267.75;;;17.87;69.92
62833;BME280;48891;49.220;6.920;2024-03-23T02:05:48;98269.28;;;17.90;69.70
62833;BME280;48891;49.220;6.920;2024-03-23T02:08:13;98258.75;;;17.88;69.62
62833;BME280;48891;49.220;6.920;2024-03-23T02:10:39;98265.78;;;17.89;69.72
62833;BME280;48891;49.220;6.920;2024-03-23T02:13:04;98256.94;;;17.89;69.80
62833;BME280;48891;49.220;6.920;2024-03-23T02:15:29;98257.94;;;17.88;69.54
62833;BME280;48891;49.220;6.920;2024-03-23T02:17:54;98251.63;;;17.89;69.48
62833;BME280;48891;49.220;6.920;2024-03-23T02:20:20;98256.09;;;17.88;69.47
62833;BME280;48891;49.220;6.920;2024-03-23T02:22:45;98225.44;;;17.64;69.54
62833;BME280;48891;49.220;6.920;2024-03-23T02:25:10;98232.25;;;17.77;69.76
62833;BME280;48891;49.220;6.920;2024-03-23T02:27:35;98255.25;;;17.88;69.81
62833;BME280;48891;49.220;6.920;2024-03-23T02:30:01;98252.59;;;17.88;69.33
62833;BME280;48891;49.220;6.920;2024-03-23T02:32:26;98251.91;;;17.86;69.54
62833;BME280;48891;49.220;6.920;2024-03-23T02:34:51;98229.66;;;17.67;69.39
62833;BME280;48891;49.220;6.920;2024-03-23T02:37:16;98267.63;;;17.89;69.50
62833;BME280;48891;49.220;6.920;2024-03-23T02:39:42;98262.44;;;17.87;69.74
62833;BME280;48891;49.220;6.920;2024-03-23T02:42:07;98254.44;;;17.87;69.42
62833;BME280;48891;49.220;6.920;2024-03-23T02:44:32;98206.91;;;17.63;69.35
62833;BME280;48891;49.220;6.920;2024-03-23T02:46:57;98246.41;;;17.77;69.59
62833;BME280;48891;49.220;6.920;2024-03-23T02:49:23;98256.94;;;17.89;69.62
62833;BME280;48891;49.220;6.920;2024-03-23T02:51:48;98260.59;;;17.88;69.70
62833;BME280;48891;49.220;6.920;2024-03-23T02:54:13;98245.03;;;17.83;69.60
62833;BME280;48891;49.220;6.920;2024-03-23T02:56:38;98234.19;;;17.84;69.36
62833;BME280;48891;49.220;6.920;2024-03-23T02:59:04;98259.91;;;17.86;69.47
62833;BME280;48891;49.220;6.920;2024-03-23T03:01:29;98250.19;;;17.84;69.28
62833;BME280;48891;49.220;6.920;2024-03-23T03:03:54;98259.91;;;17.86;69.24
62833;BME280;48891;49.220;6.920;2024-03-23T03:06:26;98276.72;;;17.86;69.15
62833;BME280;48891;49.220;6.920;2024-03-23T03:08:52;98232.88;;;17.71;69.01
62833;BME280;48891;49.220;6.920;2024-03-23T03:11:17;98264.09;;;17.88;69.14
62833;BME280;48891;49.220;6.920;2024-03-23T03:13:42;98284.59;;;17.88;68.94
62833;BME280;48891;49.220;6.920;2024-03-23T03:16:11;98276.72;;;17.86;69.14
62833;BME280;48891;49.220;6.920;2024-03-23T03:18:36;98277.59;;;17.87;69.36
62833;BME280;48891;49.220;6.920;2024-03-23T03:21:02;98291.75;;;17.87;69.06
62833;BME280;48891;49.220;6.920;2024-03-23T03:23:27;98282.94;;;17.87;68.81
62833;BME280;48891;49.220;6.920;2024-03-23T03:25:53;98291.91;;;17.86;69.20
62833;BME280;48891;49.220;6.920;2024-03-23T03:28:18;98290.94;;;17.87;68.94
62833;BME280;48891;49.220;6.920;2024-03-23T03:30:43;98288.25;;;17.87;69.03
62833;BME280;48891;49.220;6.920;2024-03-23T03:33:08;98288.38;;;17.85;69.00
62833;BME280;48891;49.220;6.920;2024-03-23T03:35:34;98289.09;;;17.87;69.25
62833;BME280;48891;49.220;6.920;2024-03-23T03:37:59;98292.72;;;17.86;69.17
62833;BME280;48891;49.220;6.920;2024-03-23T03:40:24;98309.59;;;17.87;69.25
62833;BME280;48891;49.220;6.920;2024-03-23T03:42:49;98312.09;;;17.88;68.85
62833;BME280;48891;49.220;6.920;2024-03-23T03:45:15;98311.25;;;17.88;69.31
62833;BME280;48891;49.220;6.920;2024-03-23T03:47:40;98308.72;;;17.86;68.97
62833;BME280;48891;49.220;6.920;2024-03-23T03:50:05;98313.91;;;17.88;69.25
62833;BME280;48891;49.220;6.920;2024-03-23T03:52:31;98299.47;;;17.80;69.00
62833;BME280;48891;49.220;6.920;2024-03-23T03:55:01;98318.41;;;17.87;69.00
62833;BME280;48891;49.220;6.920;2024-03-23T03:57:26;98286.59;;;17.66;69.14
62833;BME280;48891;49.220;6.920;2024-03-23T03:59:52;98316.84;;;17.84;69.29
62833;BME280;48891;49.220;6.920;2024-03-23T04:02:17;98303.50;;;17.84;68.95
62833;BME280;48891;49.220;6.920;2024-03-23T04:04:42;98309.69;;;17.85;68.95
62833;BME280;48891;49.220;6.920;2024-03-23T04:07:07;98300.84;;;17.84;69.34
62833;BME280;48891;49.220;6.920;2024-03-23T04:09:33;98287.84;;;17.72;69.21
62833;BME280;48891;49.220;6.920;2024-03-23T04:11:58;98312.66;;;17.82;69.35
62833;BME280;48891;49.220;6.920;2024-03-23T04:14:23;98322.16;;;17.84;69.38
62833;BME280;48891;49.220;6.920;2024-03-23T04:16:48;98321.34;;;17.84;69.00
62833;BME280;48891;49.220;6.920;2024-03-23T04:19:14;98317.97;;;17.82;69.07
62833;BME280;48891;49.220;6.920;2024-03-23T04:21:40;98325.84;;;17.83;69.25
62833;BME280;48891;49.220;6.920;2024-03-23T04:24:06;98343.50;;;17.84;69.10
62833;BME280;48891;49.220;6.920;2024-03-23T04:26:40;98348.13;;;17.82;69.31
62833;BME280;48891;49.220;6.920;2024-03-23T04:29:06;98349.84;;;17.83;68.98
62833;BME280;48891;49.220;6.920;2024-03-23T04:31:31;98354.34;;;17.83;69.03
62833;BME280;48891;49.220;6.920;2024-03-23T04:33:56;98346.63;;;17.80;68.92
62833;BME280;48891;49.220;6.920;2024-03-23T04:36:21;98343.94;;;17.80;69.24
62833;BME280;48891;49.220;6.920;2024-03-23T04:38:47;98342.41;;;17.77;69.03
62833;BME280;48891;49.220;6.920;2024-03-23T04:41:12;98351.81;;;17.81;69.29
62833;BME280;48891;49.220;6.920;2024-03-23T04:43:37;98350.94;;;17.81;69.31
62833;BME280;48891;49.220;6.920;2024-03-23T04:46:02;98357.97;;;17.82;68.99
62833;BME280;48891;49.220;6.920;2024-03-23T04:48:28;98350.25;;;17.79;69.39
62833;BME280;48891;49.220;6.920;2024-03-23T04:50:57;98351.94;;;17.80;68.98
62833;BME280;48891;49.220;6.920;2024-03-23T04:53:23;98359.25;;;17.78;69.27
62833;BME280;48891;49.220;6.920;2024-03-23T04:55:49;98353.94;;;17.78;68.91
62833;BME280;48891;49.220;6.920;2024-03-23T04:58:14;98364.41;;;17.79;69.09
62833;BME280;48891;49.220;6.920;2024-03-23T05:00:39;98368.09;;;17.78;69.02
62833;BME280;48891;49.220;6.920;2024-03-23T05:03:04;98374.38;;;17.77;69.35
62833;BME280;48891;49.220;6.920;2024-03-23T05:05:30;98372.59;;;17.78;68.91
62833;BME280;48891;49.220;6.920;2024-03-23T05:07:55;98370.75;;;17.78;69.17
62833;BME280;48891;49.220;6.920;2024-03-23T05:10:20;98377.06;;;17.77;69.16
62833;BME280;48891;49.220;6.920;2024-03-23T05:12:46;98387.72;;;17.77;69.05
62833;BME280;48891;49.220;6.920;2024-03-23T05:15:11;98386.75;;;17.78;69.26
62833;BME280;48891;49.220;6.920;2024-03-23T05:17:36;98355.22;;;17.64;69.05
62833;BME280;48891;49.220;6.920;2024-03-23T05:20:02;98387.84;;;17.76;69.29
62833;BME280;48891;49.220;6.920;2024-03-23T05:22:27;98391.81;;;17.72;69.16
62833;BME280;48891;49.220;6.920;2024-03-23T05:24:52;98395.84;;;17.76;69.13
62833;BME280;48891;49.220;6.920;2024-03-23T05:27:18;98410.19;;;17.75;69.31
62833;BME280;48891;49.220;6.920;2024-03-23T05:29:45;98415.38;;;17.76;69.19
62833;BME280;48891;49.220;6.920;2024-03-23T05:32:10;98413.81;;;17.74;69.32
62833;BME280;48891;49.220;6.920;2024-03-23T05:34:35;98404.03;;;17.74;68.98
62833;BME280;48891;49.220;6.920;2024-03-23T05:37:01;98392.22;;;17.77;68.95
62833;BME280;48891;49.220;6.920;2024-03-23T05:39:26;98406.53;;;17.76;69.36
62833;BME280;48891;49.220;6.920;2024-03-23T05:41:51;98419.84;;;17.76;68.94
62833;BME280;48891;49.220;6.920;2024-03-23T05:44:16;98428.00;;;17.74;69.36
62833;BME280;48891;49.220;6.920;2024-03-23T05:46:42;98423.66;;;17.73;69.33
62833;BME280;48891;49.220;6.920;2024-03-23T05:49:08;98431.94;;;17.70;69.18
62833;BME280;48891;49.220;6.920;2024-03-23T05:51:33;98434.31;;;17.73;69.56
62833;BME280;48891;49.220;6.920;2024-03-23T05:53:58;98444.84;;;17.75;68.96
62833;BME280;48891;49.220;6.920;2024-03-23T05:56:24;98447.78;;;17.72;69.27
62833;BME280;48891;49.220;6.920;2024-03-23T05:58:49;98460.00;;;17.74;69.37
62833;BME280;48891;49.220;6.920;2024-03-23T06:01:14;98468.00;;;17.74;69.32
62833;BME280;48891;49.220;6.920;2024-03-23T06:03:39;98474.31;;;17.73;68.99
62833;BME280;48891;49.220;6.920;2024-03-23T06:06:05;98478.81;;;17.73;69.17
62833;BME280;48891;49.220;6.920;2024-03-23T06:08:30;98489.47;;;17.73;69.10
62833;BME280;48891;49.220;6.920;2024-03-23T06:10:55;98500.13;;;17.73;69.14
62833;BME280;48891;49.220;6.920;2024-03-23T06:13:21;98508.00;;;17.74;69.29
62833;BME280;48891;49.220;6.920;2024-03-23T06:15:46;98504.75;;;17.71;69.10
62833;BME280;48891;49.220;6.920;2024-03-23T06:18:11;98520.03;;;17.69;69.33
62833;BME280;48891;49.220;6.920;2024-03-23T06:20:36;98537.72;;;17.70;68.34
62833;BME280;48891;49.220;6.920;2024-03-23T06:23:01;98539.56;;;17.69;69.27
62833;BME280;48891;49.220;6.920;2024-03-23T06:25:27;98550.34;;;17.68;69.50
62833;BME280;48891;49.220;6.920;2024-03-23T06:27:52;98537.03;;;17.68;69.19
62833;BME280;48891;49.220;6.920;2024-03-23T06:30:17;98536.88;;;17.69;69.21
62833;BME280;48891;49.220;6.920;2024-03-23T06:32:42;98506.53;;;17.51;69.22
62833;BME280;48891;49.220;6.920;2024-03-23T06:35:08;98553.72;;;17.70;69.05
62833;BME280;48891;49.220;6.920;2024-03-23T06:37:34;98554.84;;;17.67;69.20
62833;BME280;48891;49.220;6.920;2024-03-23T06:39:59;98559.19;;;17.68;69.11
62833;BME280;48891;49.220;6.920;2024-03-23T06:42:24;98573.22;;;17.70;69.19
62833;BME280;48891;49.220;6.920;2024-03-23T06:44:49;98577.56;;;17.71;69.42
62833;BME280;48891;49.220;6.920;2024-03-23T06:47:15;98590.91;;;17.71;69.31
62833;BME280;48891;49.220;6.920;2024-03-23T06:49:40;98586.53;;;17.70;69.34
62833;BME280;48891;49.220;6.920;2024-03-23T06:52:05;98594.41;;;17.72;68.95
62833;BME280;48891;49.220;6.920;2024-03-23T06:54:30;98596.09;;;17.73;69.21
62833;BME280;48891;49.220;6.920;2024-03-23T06:56:56;98603.22;;;17.72;68.92
62833;BME280;48891;49.220;6.920;2024-03-23T06:59:21;98605.06;;;17.72;69.22
62833;BME280;48891;49.220;6.920;2024-03-23T07:01:46;98568.13;;;17.48;69.21
62833;BME280;48891;49.220;6.920;2024-03-23T07:04:11;98598.78;;;17.73;69.11
62833;BME280;48891;49.220;6.920;2024-03-23T07:06:43;98570.25;;;17.54;69.11
62833;BME280;48891;49.220;6.920;2024-03-23T07:09:09;98602.84;;;17.67;69.12
62833;BME280;48891;49.220;6.920;2024-03-23T07:11:34;98607.72;;;17.72;68.91
62833;BME280;48891;49.220;6.920;2024-03-23T07:13:59;98625.44;;;17.73;68.80
62833;BME280;48891;49.220;6.920;2024-03-23T07:16:26;98622.19;;;17.69;68.89
62833;BME280;48891;49.220;6.920;2024-03-23T07:18:52;98593.25;;;17.55;68.94
62833;BME280;48891;49.220;6.920;2024-03-23T07:21:17;98628.94;;;17.73;68.76
62833;BME280;48891;49.220;6.920;2024-03-23T07:23:43;98618.22;;;17.63;68.95
62833;BME280;48891;49.220;6.920;2024-03-23T07:26:08;98576.22;;;17.36;68.84
62833;BME280;48891;49.220;6.920;2024-03-23T07:28:33;98643.09;;;17.74;68.69
62833;BME280;48891;49.220;6.920;2024-03-23T07:33:28;98637.06;;;17.72;68.84
62833;BME280;48891;49.220;6.920;2024-03-23T07:35:53;98643.09;;;17.74;68.60
62833;BME280;48891;49.220;6.920;2024-03-23T07:38:19;98636.22;;;17.71;68.91
62833;BME280;48891;49.220;6.920;2024-03-23T07:40:44;98621.88;;;17.62;68.79
62833;BME280;48891;49.220;6.920;2024-03-23T07:43:09;98642.38;;;17.72;68.78
62833;BME280;48891;49.220;6.920;2024-03-23T07:45:34;98648.56;;;17.72;69.08
62833;BME280;48891;49.220;6.920;2024-03-23T07:47:59;98662.06;;;17.71;68.81
62833;BME280;48891;49.220;6.920;2024-03-23T07:50:25;98657.81;;;17.68;68.97
62833;BME280;48891;49.220;6.920;2024-03-23T07:52:50;98676.47;;;17.68;68.97
62833;BME280;48891;49.220;6.920;2024-03-23T07:55:15;98676.47;;;17.68;68.82
62833;BME280;48891;49.220;6.920;2024-03-23T07:57:40;98688.28;;;17.65;69.08
62833;BME280;48891;49.220;6.920;2024-03-23T08:00:06;98703.41;;;17.65;68.69
62833;BME280;48891;49.220;6.920;2024-03-23T08:02:32;98699.06;;;17.64;69.02
62833;BME280;48891;49.220;6.920;2024-03-23T08:04:57;98714.94;;;17.65;69.14
62833;BME280;48891;49.220;6.920;2024-03-23T08:07:22;98691.78;;;17.66;68.90
62833;BME280;48891;49.220;6.920;2024-03-23T08:09:47;98682.94;;;17.65;68.99
62833;BME280;48891;49.220;6.920;2024-03-23T08:12:12;98678.69;;;17.63;69.12
62833;BME280;48891;49.220;6.920;2024-03-23T08:14:38;98688.41;;;17.64;69.09
62833;BME280;48891;49.220;6.920;2024-03-23T08:17:03;98687.28;;;17.67;68.85
62833;BME280;48891;49.220;6.920;2024-03-23T08:19:28;98698.06;;;17.65;68.87
62833;BME280;48891;49.220;6.920;2024-03-23T08:21:53;98703.25;;;17.67;68.94
62833;BME280;48891;49.220;6.920;2024-03-23T08:24:19;98709.59;;;17.65;68.68
62833;BME280;48891;49.220;6.920;2024-03-23T08:26:44;98707.75;;;17.66;68.79
62833;BME280;48891;49.220;6.920;2024-03-23T08:29:09;98708.59;;;17.67;69.01
62833;BME280;48891;49.220;6.920;2024-03-23T08:31:35;98693.16;;;17.60;68.65
62833;BME280;48891;49.220;6.920;2024-03-23T08:34:00;98705.81;;;17.68;68.61
62833;BME280;48891;49.220;6.920;2024-03-23T08:36:25;98700.59;;;17.67;68.61
62833;BME280;48891;49.220;6.920;2024-03-23T08:38:50;98676.00;;;17.53;68.72
62833;BME280;48891;49.220;6.920;2024-03-23T08:41:16;98704.97;;;17.68;68.56
62833;BME280;48891;49.220;6.920;2024-03-23T08:43:42;98687.81;;;17.60;68.75
62833;BME280;48891;49.220;6.920;2024-03-23T08:48:34;98705.28;;;17.74;68.19
62833;BME280;48891;49.220;6.920;2024-03-23T08:51:06;98699.09;;;17.74;68.75
62833;BME280;48891;49.220;6.920;2024-03-23T08:53:33;98715.66;;;17.77;68.33
62833;BME280;48891;49.220;6.920;2024-03-23T08:56:00;98689.81;;;17.68;68.65
62833;BME280;48891;49.220;6.920;2024-03-23T08:58:26;98708.22;;;17.81;68.63
62833;BME280;48891;49.220;6.920;2024-03-23T09:00:52;98716.34;;;17.79;68.62
62833;BME280;48891;49.220;6.920;2024-03-23T09:03:17;98704.72;;;17.80;68.55
62833;BME280;48891;49.220;6.920;2024-03-23T09:05:43;98714.28;;;17.83;68.63
62833;BME280;48891;49.220;6.920;2024-03-23T09:08:08;98718.63;;;17.84;68.48
62833;BME280;48891;49.220;6.920;2024-03-23T09:10:41;98712.34;;;17.85;67.60
62833;BME280;48891;49.220;6.920;2024-03-23T09:13:06;98721.19;;;17.86;68.24
62833;BME280;48891;49.220;6.920;2024-03-23T09:15:34;98730.59;;;17.90;68.61
62833;BME280;48891;49.220;6.920;2024-03-23T09:18:00;98710.63;;;17.84;67.59
62833;BME280;48891;49.220;6.920;2024-03-23T09:20:25;98702.75;;;17.82;68.26
62833;BME280;48891;49.220;6.920;2024-03-23T09:22:50;98731.47;;;17.90;68.58
62833;BME280;48891;49.220;6.920;2024-03-23T09:25:16;98721.50;;;17.92;68.43
62833;BME280;48891;49.220;6.920;2024-03-23T09:27:41;98717.00;;;17.93;68.39
62833;BME280;48891;49.220;6.920;2024-03-23T09:30:06;98717.97;;;17.92;66.21
62833;BME280;48891;49.220;6.920;2024-03-23T09:32:32;98718.28;;;17.98;67.63
62833;BME280;48891;49.220;6.920;2024-03-23T09:34:57;98703.09;;;17.89;66.83
62833;BME280;48891;49.220;6.920;2024-03-23T09:37:22;98717.31;;;17.99;65.44
62833;BME280;48891;49.220;6.920;2024-03-23T09:39:48;98714.66;;;17.99;66.17
62833;BME280;48891;49.220;6.920;2024-03-23T09:42:13;98691.13;;;17.83;66.53
62833;BME280;48891;49.220;6.920;2024-03-23T09:44:38;98715.22;;;18.03;67.70
62833;BME280;48891;49.220;6.920;2024-03-23T09:47:03;98707.34;;;18.01;67.93
62833;BME280;48891;49.220;6.920;2024-03-23T09:49:29;98707.47;;;18.00;67.93
62833;BME280;48891;49.220;6.920;2024-03-23T09:51:55;98699.47;;;18.00;67.71
62833;BME280;48891;49.220;6.920;2024-03-23T09:54:21;98686.97;;;17.91;68.26
62833;BME280;48891;49.220;6.920;2024-03-23T09:56:46;98693.31;;;17.99;66.85
62833;BME280;48891;49.220;6.920;2024-03-23T09:59:11;98689.50;;;18.02;67.09
62833;BME280;48891;49.220;6.920;2024-03-23T10:01:36;98688.13;;;18.08;67.80
62833;BME280;48891;49.220;6.920;2024-03-23T10:04:02;98688.28;;;18.06;68.01
62833;BME280;48891;49.220;6.920;2024-03-23T10:06:28;98680.41;;;18.05;67.80
62833;BME280;48891;49.220;6.920;2024-03-23T10:08:53;98685.75;;;18.05;67.73
62833;BME280;48891;49.220;6.920;2024-03-23T10:11:18;98679.41;;;18.06;66.12
62833;BME280;48891;49.220;6.920;2024-03-23T10:13:44;98680.69;;;18.01;67.66
62833;BME280;48891;49.220;6.920;2024-03-23T10:16:10;98704.81;;;18.00;67.30
62833;BME280;48891;49.220;6.920;2024-03-23T10:18:39;98702.59;;;18.05;65.41
62833;BME280;48891;49.220;6.920;2024-03-23T10:23:30;98700.88;;;18.04;67.29
62833;BME280;48891;49.220;6.920;2024-03-23T10:25:55;98707.66;;;18.08;67.31
62833;BME280;48891;49.220;6.920;2024-03-23T10:28:25;98701.44;;;18.08;67.53
62833;BME280;48891;49.220;6.920;2024-03-23T10:30:50;98705.13;;;18.07;67.48
62833;BME280;48891;49.220;6.920;2024-03-23T10:33:16;98698.66;;;18.09;67.43
62833;BME280;48891;49.220;6.920;2024-03-23T10:35:41;98702.03;;;18.11;67.51
62833;BME280;48891;49.220;6.920;2024-03-23T10:38:07;98700.78;;;18.15;67.35
62833;BME280;48891;49.220;6.920;2024-03-23T10:40:36;98697.00;;;18.18;67.40
62833;BME280;48891;49.220;6.920;2024-03-23T10:43:01;98686.88;;;18.21;67.85
62833;BME280;48891;49.220;6.920;2024-03-23T10:45:28;98679.56;;;18.24;67.33
62833;BME280;48891;49.220;6.920;2024-03-23T10:47:53;98673.84;;;18.28;67.55
62833;BME280;48891;49.220;6.920;2024-03-23T10:50:18;98681.16;;;18.26;67.54
62833;BME280;48891;49.220;6.920;2024-03-23T10:52:46;98674.25;;;18.24;67.62
62833;BME280;48891;49.220;6.920;2024-03-23T10:55:13;98675.25;;;18.23;67.65
62833;BME280;48891;49.220;6.920;2024-03-23T10:57:45;98673.69;;;18.20;67.17
62833;BME280;48891;49.220;6.920;2024-03-23T11:00:13;98659.50;;;18.19;67.48
62833;BME280;48891;49.220;6.920;2024-03-23T11:02:39;98656.97;;;18.18;67.27
62833;BME280;48891;49.220;6.920;2024-03-23T11:05:48;98670.31;;;18.18;67.62
62833;BME280;48891;49.220;6.920;2024-03-23T11:08:29;98736.69;;;18.11;65.64
62833;BME280;48891;49.220;6.920;2024-03-23T11:11:11;98745.28;;;18.15;64.46
62833;BME280;48891;49.220;6.920;2024-03-23T11:13:37;98747.09;;;18.14;65.17
62833;BME280;48891;49.220;6.920;2024-03-23T11:16:21;98724.06;;;18.03;66.81
62833;BME280;48891;49.220;6.920;2024-03-23T11:18:46;98716.63;;;18.07;66.35
62833;BME280;48891;49.220;6.920;2024-03-23T11:24:16;98732.38;;;18.20;66.25
62833;BME280;48891;49.220;6.920;2024-03-23T11:26:41;98753.19;;;18.26;67.10
62833;BME280;48891;49.220;6.920;2024-03-23T11:29:10;98739.16;;;18.24;67.08
62833;BME280;48891;49.220;6.920;2024-03-23T11:31:37;98733.09;;;18.22;66.93
62833;BME280;48891;49.220;6.920;2024-03-23T11:34:04;98750.91;;;18.21;66.86
62833;BME280;48891;49.220;6.920;2024-03-23T11:36:30;98747.81;;;18.16;66.96
62833;BME280;48891;49.220;6.920;2024-03-23T11:38:55;98761.00;;;18.18;67.05
62833;BME280;48891;49.220;6.920;2024-03-23T11:41:20;98761.44;;;18.13;66.93
62833;BME280;48891;49.220;6.920;2024-03-23T11:43:45;98774.91;;;18.12;65.81
62833;BME280;48891;49.220;6.920;2024-03-23T11:46:11;98741.63;;;18.06;66.75
62833;BME280;48891;49.220;6.920;2024-03-23T11:48:36;98748.53;;;18.18;66.75
62833;BME280;48891;49.220;6.920;2024-03-23T11:51:01;98746.56;;;18.20;67.20
62833;BME280;48891;49.220;6.920;2024-03-23T11:53:27;98755.41;;;18.21;66.62
62833;BME280;48891;49.220;6.920;2024-03-23T11:55:54;98748.38;;;18.20;66.52
62833;BME280;48891;49.220;6.920;2024-03-23T11:58:21;98726.06;;;18.21;66.92
62833;BME280;48891;49.220;6.920;2024-03-23T12:00:50;98725.09;;;18.22;66.85
62833;BME280;48891;49.220;6.920;2024-03-23T12:03:16;98736.44;;;18.14;66.42
62833;BME280;48891;49.220;6.920;2024-03-23T12:05:47;98739.38;;;18.11;66.13
62833;BME280;48891;49.220;6.920;2024-03-23T12:08:29;98729.25;;;18.05;63.53
62833;BME280;48891;49.220;6.920;2024-03-23T12:11:13;98730.09;;;18.06;66.43
62833;BME280;48891;49.220;6.920;2024-03-23T12:13:39;98723.88;;;17.95;66.50
62833;BME280;48891;49.220;6.920;2024-03-23T12:18:37;98743.28;;;18.07;66.40
62833;BME280;48891;49.220;6.920;2024-03-23T12:21:03;98657.38;;;17.63;66.74
62833;BME280;48891;49.220;6.920;2024-03-23T12:23:28;98712.13;;;18.08;66.28
62833;BME280;48891;49.220;6.920;2024-03-23T12:25:53;98676.03;;;17.94;66.59
62833;BME280;48891;49.220;6.920;2024-03-23T12:28:19;98695.59;;;18.14;66.21
62833;BME280;48891;49.220;6.920;2024-03-23T12:30:44;98699.00;;;18.26;66.14
62833;BME280;48891;49.220;6.920;2024-03-23T12:33:09;98694.47;;;18.26;64.68
62833;BME280;48891;49.220;6.920;2024-03-23T12:35:34;98673.13;;;18.26;63.90
62833;BME280;48891;49.220;6.920;2024-03-23T12:38:00;98677.63;;;18.35;64.55
62833;BME280;48891;49.220;6.920;2024-03-23T12:40:25;98680.72;;;18.40;65.07
62833;BME280;48891;49.220;6.920;2024-03-23T12:42:50;98638.72;;;18.23;65.44
62833;BME280;48891;49.220;6.920;2024-03-23T12:45:16;98658.41;;;18.42;65.69
62833;BME280;48891;49.220;6.920;2024-03-23T12:47:41;98661.75;;;18.53;65.60
62833;BME280;48891;49.220;6.920;2024-03-23T12:50:06;98656.16;;;18.56;64.76
62833;BME280;48891;49.220;6.920;2024-03-23T12:52:32;98656.56;;;18.62;65.64
62833;BME280;48891;49.220;6.920;2024-03-23T12:54:58;98621.72;;;18.34;65.91
62833;BME280;48891;49.220;6.920;2024-03-23T12:57:24;98657.41;;;18.62;65.61
62833;BME280;48891;49.220;6.920;2024-03-23T12:59:54;98655.16;;;18.67;64.34
62833;BME280;48891;49.220;6.920;2024-03-23T13:02:22;98645.72;;;18.73;64.80
62833;BME280;48891;49.220;6.920;2024-03-23T13:04:50;98645.72;;;18.73;62.54
62833;BME280;48891;49.220;6.920;2024-03-23T13:07:20;98639.69;;;18.71;64.39
62833;BME280;48891;49.220;6.920;2024-03-23T13:09:46;98641.66;;;18.69;64.71
62833;BME280;48891;49.220;6.920;2024-03-23T13:12:12;98632.81;;;18.68;64.49
62833;BME280;48891;49.220;6.920;2024-03-23T13:14:47;98612.00;;;18.62;65.45
62833;BME280;48891;49.220;6.920;2024-03-23T13:17:13;98568.78;;;18.39;65.24
62833;BME280;48891;49.220;6.920;2024-03-23T13:19:38;98629.84;;;18.81;65.58
62833;BME280;48891;49.220;6.920;2024-03-23T13:22:04;98622.56;;;18.83;65.31
62833;BME280;48891;49.220;6.920;2024-03-23T13:24:29;98622.97;;;18.88;64.66
62833;BME280;48891;49.220;6.920;2024-03-23T13:26:55;98615.38;;;18.93;65.08
62833;BME280;48891;49.220;6.920;2024-03-23T13:29:21;98614.09;;;18.97;65.00
62833;BME280;48891;49.220;6.920;2024-03-23T13:31:47;98582.50;;;18.83;64.86
62833;BME280;48891;49.220;6.920;2024-03-23T13:34:13;98593.66;;;19.06;64.10
62833;BME280;48891;49.220;6.920;2024-03-23T13:36:38;98565.44;;;18.94;64.33
62833;BME280;48891;49.220;6.920;2024-03-23T13:39:03;98583.38;;;19.11;64.13
62833;BME280;48891;49.220;6.920;2024-03-23T13:41:29;98559.81;;;18.97;64.00
62833;BME280;48891;49.220;6.920;2024-03-23T13:43:54;98578.03;;;19.21;63.87
62833;BME280;48891;49.220;6.920;2024-03-23T13:46:19;98577.56;;;19.26;63.57
62833;BME280;48891;49.220;6.920;2024-03-23T13:48:44;98574.19;;;19.24;64.08
62833;BME280;48891;49.220;6.920;2024-03-23T13:51:10;98576.19;;;19.22;64.02
62833;BME280;48891;49.220;6.920;2024-03-23T13:53:35;98531.97;;;19.00;64.34
62833;BME280;48891;49.220;6.920;2024-03-23T13:56:00;98560.97;;;19.22;63.63
62833;BME280;48891;49.220;6.920;2024-03-23T13:58:25;98521.06;;;18.93;63.48
62833;BME280;48891;49.220;6.920;2024-03-23T14:00:51;98549.81;;;19.09;64.48